Time;durP1;ratioP1;P1;durP2;ratioP2;P2;SDS_P1;SDS_P2;PMS_P1;PMS_P2;Temp;Humidity;BMP_temperature;BMP_pressure;BME280_temperature;BME280_humidity;BME280_pressure;Samples;Min_cycle;Max_cycle;Signal;HPM_P1;HPM_P2
2023/08/20 00:02:50;;;;;;;9.48;4.28;;;;;;;;;;10496464;28;20036;-80
2023/08/20 00:07:53;;;;;;;7.03;3.53;;;;;;;;;;10496032;28;20064;-77
2023/08/20 00:12:56;;;;;;;10.80;3.80;;;;;;;;;;10497273;28;20615;-80
2023/08/20 00:18:01;;;;;;;10.70;4.20;;;;;;;;;;10496969;28;20413;-79
2023/08/20 00:23:05;;;;;;;8.95;3.85;;;;;;;;;;10489328;28;20150;-80
2023/08/20 00:28:08;;;;;;;6.28;3.95;;;;;;;;;;10489307;28;20048;-77
2023/08/20 00:33:12;;;;;;;8.45;4.25;;;;;;;;;;10494024;28;20041;-80
2023/08/20 00:38:14;;;;;;;8.43;4.65;;;;;;;;;;10487845;28;20036;-79
2023/08/20 00:43:17;;;;;;;8.63;4.20;;;;;;;;;;10497061;28;20037;-80
2023/08/20 00:48:21;;;;;;;13.45;4.65;;;;;;;;;;10516448;28;20510;-80
2023/08/20 00:53:24;;;;;;;11.32;4.80;;;;;;;;;;10494785;28;20105;-79
2023/08/20 00:58:31;;;;;;;8.25;4.50;;;;;;;;;;10498638;28;20133;-80
2023/08/20 01:03:36;;;;;;;10.05;4.53;;;;;;;;;;10489526;28;20621;-80
2023/08/20 01:08:41;;;;;;;7.18;3.97;;;;;;;;;;10490964;28;20136;-80
2023/08/20 01:13:47;;;;;;;9.43;4.13;;;;;;;;;;10490512;28;20037;-80
2023/08/20 01:18:51;;;;;;;11.05;4.30;;;;;;;;;;10495890;28;20356;-81
2023/08/20 01:24:07;;;;;;;8.93;3.78;;;;;;;;;;10497853;28;20069;-81
2023/08/20 01:29:12;;;;;;;9.40;4.13;;;;;;;;;;10499465;28;20064;-81
2023/08/20 01:34:15;;;;;;;10.38;4.00;;;;;;;;;;10494682;28;20092;-80
2023/08/20 01:39:18;;;;;;;10.25;4.40;;;;;;;;;;10495533;28;20041;-80
2023/08/20 01:44:25;;;;;;;9.13;4.22;;;;;;;;;;10496685;28;20045;-81
2023/08/20 01:49:27;;;;;;;10.60;4.07;;;;;;;;;;10500356;28;20075;-82
2023/08/20 01:54:30;;;;;;;10.25;4.13;;;;;;;;;;10505007;28;20060;-80
2023/08/20 01:59:35;;;;;;;9.32;4.50;;;;;;;;;;10498336;28;20040;-81
2023/08/20 02:04:37;;;;;;;8.02;4.22;;;;;;;;;;10497942;28;20064;-80
2023/08/20 02:09:40;;;;;;;7.15;4.15;;;;;;;;;;10499142;28;20036;-80
2023/08/20 02:14:44;;;;;;;7.85;3.85;;;;;;;;;;10503016;28;20044;-81
2023/08/20 02:19:47;;;;;;;8.90;4.15;;;;;;;;;;10497142;28;20037;-80
2023/08/20 02:24:50;;;;;;;8.88;4.25;;;;;;;;;;10499193;28;20071;-79
2023/08/20 02:29:54;;;;;;;6.90;4.22;;;;;;;;;;10514864;28;20047;-80
2023/08/20 02:34:56;;;;;;;10.13;4.47;;;;;;;;;;10507848;28;20028;-80
2023/08/20 02:39:59;;;;;;;11.98;3.90;;;;;;;;;;10502218;28;20064;-79
2023/08/20 02:45:03;;;;;;;9.82;4.72;;;;;;;;;;10521136;28;20028;-80
2023/08/20 02:50:06;;;;;;;9.23;3.88;;;;;;;;;;10525712;28;20051;-80
2023/08/20 02:55:09;;;;;;;6.78;4.10;;;;;;;;;;10536149;28;20036;-80
2023/08/20 03:00:14;;;;;;;8.45;4.57;;;;;;;;;;10537468;28;20032;-79
2023/08/20 03:05:17;;;;;;;8.18;4.38;;;;;;;;;;10533580;28;20029;-80
2023/08/20 03:10:19;;;;;;;10.25;4.47;;;;;;;;;;10536083;28;20020;-80
2023/08/20 03:15:23;;;;;;;7.60;4.53;;;;;;;;;;10533385;28;20029;-81
2023/08/20 03:20:28;;;;;;;11.60;4.53;;;;;;;;;;10530940;28;20041;-79
2023/08/20 03:25:30;;;;;;;9.68;4.97;;;;;;;;;;10529500;28;20055;-79
2023/08/20 03:30:35;;;;;;;9.77;4.40;;;;;;;;;;10531421;28;20040;-80
2023/08/20 03:35:37;;;;;;;8.85;4.38;;;;;;;;;;10531313;28;20028;-82
2023/08/20 03:40:40;;;;;;;10.93;4.38;;;;;;;;;;10536494;28;20051;-80
2023/08/20 03:45:44;;;;;;;9.70;4.35;;;;;;;;;;10533620;28;20050;-79
2023/08/20 03:50:47;;;;;;;8.55;4.35;;;;;;;;;;10528357;28;20041;-79
2023/08/20 03:55:50;;;;;;;7.30;4.20;;;;;;;;;;10530351;28;20045;-81
2023/08/20 04:00:54;;;;;;;9.07;4.70;;;;;;;;;;10526111;28;20035;-79
2023/08/20 04:05:57;;;;;;;11.82;4.28;;;;;;;;;;10526203;28;20032;-81
2023/08/20 04:11:01;;;;;;;11.73;5.18;;;;;;;;;;10523979;28;20036;-79
2023/08/20 04:16:05;;;;;;;9.23;5.20;;;;;;;;;;10531883;28;20040;-80
2023/08/20 04:21:08;;;;;;;7.15;4.68;;;;;;;;;;10527757;28;20064;-80
2023/08/20 04:26:11;;;;;;;9.75;4.53;;;;;;;;;;10533814;28;20047;-79
2023/08/20 04:31:16;;;;;;;6.40;3.88;;;;;;;;;;10536168;28;20048;-79
2023/08/20 04:36:19;;;;;;;9.48;4.13;;;;;;;;;;10537366;28;20040;-81
2023/08/20 04:41:22;;;;;;;8.13;4.28;;;;;;;;;;10528125;28;20078;-81
2023/08/20 04:46:26;;;;;;;10.98;4.43;;;;;;;;;;10541165;28;20055;-80
2023/08/20 04:51:29;;;;;;;12.38;4.57;;;;;;;;;;10533952;28;20087;-79
2023/08/20 04:56:32;;;;;;;6.68;4.32;;;;;;;;;;10537160;28;20056;-81
2023/08/20 05:01:37;;;;;;;8.27;4.10;;;;;;;;;;10536624;28;20031;-81
2023/08/20 05:06:39;;;;;;;15.63;4.63;;;;;;;;;;10536489;28;20020;-81
2023/08/20 05:11:42;;;;;;;8.65;4.28;;;;;;;;;;10531685;28;20031;-81
2023/08/20 05:16:47;;;;;;;9.43;4.18;;;;;;;;;;10535276;28;20033;-82
2023/08/20 05:21:50;;;;;;;9.20;4.47;;;;;;;;;;10535178;28;20116;-80
2023/08/20 05:27:04;;;;;;;9.30;4.03;;;;;;;;;;10518496;28;20073;-80
2023/08/20 05:32:11;;;;;;;8.00;4.45;;;;;;;;;;10520287;28;20032;-78
2023/08/20 05:37:15;;;;;;;9.80;4.22;;;;;;;;;;10514347;28;20048;-80
2023/08/20 05:42:18;;;;;;;6.97;4.38;;;;;;;;;;10507112;28;20109;-80
2023/08/20 05:47:23;;;;;;;8.45;4.45;;;;;;;;;;10486088;28;20084;-79
2023/08/20 05:52:26;;;;;;;8.80;4.47;;;;;;;;;;10478261;28;20029;-80
2023/08/20 05:57:28;;;;;;;9.25;4.07;;;;;;;;;;10473664;28;20125;-80
2023/08/20 06:02:32;;;;;;;7.22;3.78;;;;;;;;;;10475334;28;20040;-79
2023/08/20 06:07:36;;;;;;;7.57;4.00;;;;;;;;;;10483139;28;20358;-80
2023/08/20 06:12:39;;;;;;;7.57;3.80;;;;;;;;;;10482521;28;20110;-79
2023/08/20 06:17:43;;;;;;;9.55;4.18;;;;;;;;;;10484333;28;20482;-79
2023/08/20 06:22:46;;;;;;;8.18;4.40;;;;;;;;;;10483400;28;20036;-79
2023/08/20 06:27:48;;;;;;;9.73;4.10;;;;;;;;;;10474732;28;20074;-79
2023/08/20 06:32:52;;;;;;;6.90;3.97;;;;;;;;;;10478619;28;20043;-80
2023/08/20 06:37:55;;;;;;;10.90;4.35;;;;;;;;;;10473934;28;20129;-76
2023/08/20 06:42:58;;;;;;;;;;;;;;;;;;10477957;28;20124;-78
2023/08/20 06:48:02;;;;;;;9.55;4.35;;;;;;;;;;10477464;28;19920;-79
2023/08/20 06:53:05;;;;;;;11.05;4.20;;;;;;;;;;10477855;28;20036;-81
2023/08/20 06:58:08;;;;;;;9.73;4.13;;;;;;;;;;10476328;28;20056;-82
2023/08/20 07:03:12;;;;;;;8.48;4.88;;;;;;;;;;10475484;28;20115;-82
2023/08/20 07:08:15;;;;;;;7.68;4.30;;;;;;;;;;10477736;28;20466;-82
2023/08/20 07:13:18;;;;;;;6.45;4.00;;;;;;;;;;10479545;28;20084;-83
2023/08/20 07:18:24;;;;;;;7.72;4.25;;;;;;;;;;10479435;28;20045;-82
2023/08/20 07:23:27;;;;;;;6.40;3.30;;;;;;;;;;10475214;28;20040;-81
2023/08/20 07:28:56;;;;;;;6.97;3.90;;;;;;;;;;10482407;28;20115;-76
2023/08/20 07:34:00;;;;;;;6.28;3.92;;;;;;;;;;10476275;28;20032;-76
2023/08/20 07:39:06;;;;;;;7.38;4.30;;;;;;;;;;10475732;28;20413;-77
2023/08/20 07:44:09;;;;;;;9.88;4.55;;;;;;;;;;10480690;28;20469;-77
2023/08/20 07:49:13;;;;;;;9.43;4.30;;;;;;;;;;10479220;28;20037;-77
2023/08/20 07:54:16;;;;;;;7.75;4.60;;;;;;;;;;10486127;28;20124;-77
2023/08/20 07:59:19;;;;;;;6.20;4.72;;;;;;;;;;10482324;28;20123;-77
2023/08/20 08:04:23;;;;;;;8.02;5.25;;;;;;;;;;10489708;28;20044;-76
2023/08/20 08:09:27;;;;;;;7.30;4.63;;;;;;;;;;10485798;28;20082;-77
2023/08/20 08:14:30;;;;;;;6.28;4.70;;;;;;;;;;10486531;28;20845;-77
2023/08/20 08:19:35;;;;;;;8.35;4.38;;;;;;;;;;10486275;28;20051;-77
2023/08/20 08:24:37;;;;;;;7.40;4.50;;;;;;;;;;10484965;28;20044;-77
2023/08/20 08:29:40;;;;;;;6.05;4.03;;;;;;;;;;10487778;28;20457;-77
2023/08/20 08:34:45;;;;;;;5.35;3.97;;;;;;;;;;10486951;28;20047;-77
2023/08/20 08:39:47;;;;;;;5.68;3.60;;;;;;;;;;10487937;28;20045;-77
2023/08/20 08:44:50;;;;;;;8.35;4.47;;;;;;;;;;10492441;28;20035;-77
2023/08/20 08:49:56;;;;;;;7.70;4.30;;;;;;;;;;10485500;28;20059;-78
2023/08/20 08:54:58;;;;;;;9.15;4.50;;;;;;;;;;10486403;28;20044;-77
2023/08/20 09:00:02;;;;;;;6.00;4.40;;;;;;;;;;10493966;28;20070;-77
2023/08/20 09:05:07;;;;;;;5.18;4.10;;;;;;;;;;10486612;28;20493;-78
2023/08/20 09:10:11;;;;;;;6.07;4.30;;;;;;;;;;10487737;28;20056;-77
2023/08/20 09:15:13;;;;;;;5.90;4.75;;;;;;;;;;10492015;28;20144;-77
2023/08/20 09:20:17;;;;;;;7.97;4.43;;;;;;;;;;10485941;28;20045;-78
2023/08/20 09:25:20;;;;;;;8.30;4.13;;;;;;;;;;10490462;28;20422;-78
2023/08/20 09:30:23;;;;;;;6.38;4.55;;;;;;;;;;10489360;28;20040;-78
2023/08/20 09:35:27;;;;;;;8.20;4.32;;;;;;;;;;10495677;28;20409;-77
2023/08/20 09:40:30;;;;;;;6.20;4.38;;;;;;;;;;10497258;28;20059;-76
2023/08/20 09:45:33;;;;;;;7.22;4.38;;;;;;;;;;10504334;28;20037;-78
2023/08/20 09:50:38;;;;;;;5.22;4.20;;;;;;;;;;10512607;28;20064;-77
2023/08/20 09:55:42;;;;;;;6.28;3.95;;;;;;;;;;10504475;28;20032;-76
2023/08/20 10:00:45;;;;;;;5.32;4.57;;;;;;;;;;10504356;28;20037;-77
2023/08/20 10:05:51;;;;;;;7.40;4.63;;;;;;;;;;10498964;28;20072;-76
2023/08/20 10:10:53;;;;;;;6.00;4.40;;;;;;;;;;10489537;28;20082;-76
2023/08/20 10:15:56;;;;;;;5.15;4.50;;;;;;;;;;10498076;28;20405;-76
2023/08/20 10:21:02;;;;;;;5.60;4.90;;;;;;;;;;10494251;28;20056;-77
2023/08/20 10:26:10;;;;;;;6.68;4.43;;;;;;;;;;10487491;28;20514;-76
2023/08/20 10:31:13;;;;;;;5.63;5.00;;;;;;;;;;10490564;28;20496;-76
2023/08/20 10:36:18;;;;;;;5.00;4.60;;;;;;;;;;10490434;28;20052;-76
2023/08/20 10:41:25;;;;;;;6.82;4.80;;;;;;;;;;10493234;28;20123;-76
2023/08/20 10:46:30;;;;;;;5.55;4.65;;;;;;;;;;10494931;28;20086;-75
2023/08/20 10:51:35;;;;;;;8.35;4.60;;;;;;;;;;10507045;28;20051;-76
2023/08/20 10:56:42;;;;;;;6.28;4.60;;;;;;;;;;10493889;28;20163;-75
2023/08/20 11:01:45;;;;;;;4.80;4.15;;;;;;;;;;10495583;28;20044;-76
2023/08/20 11:06:53;;;;;;;4.43;4.00;;;;;;;;;;10489811;28;20044;-77
2023/08/20 11:11:56;;;;;;;5.65;4.50;;;;;;;;;;10493075;28;20049;-76
2023/08/20 11:16:58;;;;;;;5.18;4.32;;;;;;;;;;10491034;28;20494;-76
2023/08/20 11:22:02;;;;;;;6.55;4.20;;;;;;;;;;10484671;28;20049;-76
2023/08/20 11:27:05;;;;;;;7.15;4.05;;;;;;;;;;10501599;28;20124;-77
2023/08/20 11:32:09;;;;;;;4.32;3.47;;;;;;;;;;10500692;28;20432;-76
2023/08/20 11:37:13;;;;;;;5.43;3.90;;;;;;;;;;10510853;28;20052;-77
2023/08/20 11:42:16;;;;;;;5.78;3.72;;;;;;;;;;10516385;28;20557;-76
2023/08/20 11:47:19;;;;;;;7.78;3.95;;;;;;;;;;10510513;28;20056;-75
2023/08/20 11:52:24;;;;;;;4.70;4.07;;;;;;;;;;10509871;28;20036;-77
2023/08/20 11:57:26;;;;;;;4.45;3.97;;;;;;;;;;10506329;28;20041;-77
2023/08/20 12:02:40;;;;;;;6.38;4.57;;;;;;;;;;10509842;28;20048;-77
2023/08/20 12:07:58;;;;;;;4.30;3.90;;;;;;;;;;10507797;28;20045;-76
2023/08/20 12:13:02;;;;;;;6.13;3.92;;;;;;;;;;10508056;28;20557;-77
2023/08/20 12:18:06;;;;;;;6.57;4.18;;;;;;;;;;10503428;28;20040;-75
2023/08/20 12:23:10;;;;;;;5.70;4.10;;;;;;;;;;10508204;28;20044;-77
2023/08/20 12:28:13;;;;;;;6.15;3.95;;;;;;;;;;10513097;28;20048;-76
2023/08/20 12:33:16;;;;;;;5.45;3.53;;;;;;;;;;10506263;28;20071;-77
2023/08/20 12:38:20;;;;;;;7.63;3.88;;;;;;;;;;10505097;28;20047;-75
2023/08/20 12:43:23;;;;;;;5.38;4.00;;;;;;;;;;10508617;28;20059;-75
2023/08/20 12:48:25;;;;;;;4.57;3.78;;;;;;;;;;10500692;28;20041;-79
2023/08/20 12:53:30;;;;;;;6.72;3.95;;;;;;;;;;10490101;28;20072;-76
2023/08/20 12:58:33;;;;;;;4.00;3.60;;;;;;;;;;10492706;28;20470;-77
2023/08/20 13:03:36;;;;;;;7.68;4.00;;;;;;;;;;10484306;28;20489;-77
2023/08/20 13:08:41;;;;;;;4.38;3.60;;;;;;;;;;10486451;28;20068;-77
2023/08/20 13:13:44;;;;;;;5.53;4.05;;;;;;;;;;10488545;28;20101;-78
2023/08/20 13:18:47;;;;;;;4.35;3.53;;;;;;;;;;10489363;28;20494;-76
2023/08/20 13:23:51;;;;;;;4.53;3.40;;;;;;;;;;10487346;28;20546;-77
2023/08/20 13:28:54;;;;;;;6.65;3.75;;;;;;;;;;10489465;28;20397;-77
2023/08/20 13:33:56;;;;;;;6.63;3.85;;;;;;;;;;10487092;28;20083;-78
2023/08/20 13:39:01;;;;;;;7.97;3.70;;;;;;;;;;10483742;28;20047;-77
2023/08/20 13:44:04;;;;;;;6.43;3.75;;;;;;;;;;10483196;28;20162;-77
2023/08/20 13:49:06;;;;;;;6.88;3.85;;;;;;;;;;10482204;28;20522;-77
2023/08/20 13:54:11;;;;;;;5.88;3.58;;;;;;;;;;10484859;28;20057;-77
2023/08/20 13:59:13;;;;;;;4.82;3.85;;;;;;;;;;10475179;28;20054;-77
2023/08/20 14:04:16;;;;;;;4.82;3.63;;;;;;;;;;10480841;28;20141;-77
2023/08/20 14:09:21;;;;;;;4.47;3.35;;;;;;;;;;10478184;28;20045;-77
2023/08/20 14:14:24;;;;;;;4.65;3.42;;;;;;;;;;10484003;28;20052;-77
2023/08/20 14:19:26;;;;;;;4.90;3.30;;;;;;;;;;10487975;28;20040;-77
2023/08/20 14:24:30;;;;;;;7.40;4.50;;;;;;;;;;10486216;28;20105;-76
2023/08/20 14:29:33;;;;;;;6.22;3.80;;;;;;;;;;10486939;28;20078;-77
2023/08/20 14:34:36;;;;;;;4.70;3.60;;;;;;;;;;10481634;28;20127;-77
2023/08/20 14:39:39;;;;;;;5.47;3.50;;;;;;;;;;10486615;28;20120;-78
2023/08/20 14:44:42;;;;;;;5.70;3.38;;;;;;;;;;10486087;28;20041;-76
2023/08/20 14:49:45;;;;;;;5.47;2.95;;;;;;;;;;10482229;28;20116;-77
2023/08/20 14:54:49;;;;;;;6.32;3.53;;;;;;;;;;10480055;28;20068;-76
2023/08/20 14:59:52;;;;;;;5.40;3.58;;;;;;;;;;10477864;28;20112;-76
2023/08/20 15:04:54;;;;;;;5.70;3.47;;;;;;;;;;10480229;28;20072;-76
2023/08/20 15:09:58;;;;;;;6.20;3.80;;;;;;;;;;10482245;28;20093;-76
2023/08/20 15:15:02;;;;;;;10.15;3.65;;;;;;;;;;10479239;28;20152;-76
2023/08/20 15:20:07;;;;;;;6.75;3.55;;;;;;;;;;10481540;28;20068;-77
2023/08/20 15:25:11;;;;;;;6.07;3.20;;;;;;;;;;10485036;28;20228;-76
2023/08/20 15:30:14;;;;;;;5.00;3.17;;;;;;;;;;10476377;28;20098;-78
2023/08/20 15:35:17;;;;;;;6.45;3.60;;;;;;;;;;10475364;28;20072;-77
2023/08/20 15:40:22;;;;;;;7.70;3.97;;;;;;;;;;10476023;28;20540;-77
2023/08/20 15:45:24;;;;;;;3.78;3.03;;;;;;;;;;10476665;28;20157;-78
2023/08/20 15:50:28;;;;;;;7.85;3.50;;;;;;;;;;10475786;28;20147;-79
2023/08/20 15:55:32;;;;;;;7.00;3.58;;;;;;;;;;10469551;28;20034;-79
2023/08/20 16:00:35;;;;;;;10.90;3.80;;;;;;;;;;10470840;28;20057;-79
2023/08/20 16:05:38;;;;;;;7.20;3.90;;;;;;;;;;10481710;28;20040;-80
2023/08/20 16:10:42;;;;;;;5.00;3.45;;;;;;;;;;10481411;28;20050;-79
2023/08/20 16:15:45;;;;;;;8.95;3.92;;;;;;;;;;10488300;28;20438;-78
2023/08/20 16:20:48;;;;;;;6.70;3.58;;;;;;;;;;10482003;28;20044;-80
2023/08/20 16:25:52;;;;;;;5.50;3.50;;;;;;;;;;10481802;28;20033;-79
2023/08/20 16:30:55;;;;;;;5.43;3.50;;;;;;;;;;10479925;28;20056;-79
2023/08/20 16:35:57;;;;;;;6.22;3.70;;;;;;;;;;10484622;28;20068;-80
2023/08/20 16:41:02;;;;;;;6.00;3.60;;;;;;;;;;10477743;28;20051;-74
2023/08/20 16:46:05;;;;;;;6.40;3.60;;;;;;;;;;10483745;28;20064;-76
2023/08/20 16:51:08;;;;;;;6.25;3.50;;;;;;;;;;10478379;28;20048;-76
2023/08/20 16:56:12;;;;;;;6.85;3.88;;;;;;;;;;10479260;28;20110;-76
2023/08/20 17:01:15;;;;;;;6.25;3.75;;;;;;;;;;10483035;28;20071;-76
2023/08/20 17:06:17;;;;;;;5.45;3.83;;;;;;;;;;10479540;28;20044;-77
2023/08/20 17:11:21;;;;;;;6.80;3.67;;;;;;;;;;10482915;28;20054;-76
2023/08/20 17:16:26;;;;;;;5.93;3.60;;;;;;;;;;10480617;28;20029;-77
2023/08/20 17:21:29;;;;;;;8.25;3.80;;;;;;;;;;10481568;28;20044;-76
2023/08/20 17:26:33;;;;;;;8.25;3.78;;;;;;;;;;10478517;28;20478;-75
2023/08/20 17:31:37;;;;;;;9.65;4.65;;;;;;;;;;10482423;28;20037;-76
2023/08/20 17:36:39;;;;;;;5.90;3.90;;;;;;;;;;10480609;28;20048;-77
2023/08/20 17:41:43;;;;;;;7.25;4.00;;;;;;;;;;10477078;28;20044;-76
2023/08/20 17:46:47;;;;;;;6.05;4.30;;;;;;;;;;10476401;28;20041;-77
2023/08/20 17:51:49;;;;;;;7.57;4.63;;;;;;;;;;10475228;28;20114;-77
2023/08/20 17:56:54;;;;;;;6.90;4.30;;;;;;;;;;10477306;28;20148;-77
2023/08/20 18:01:57;;;;;;;6.75;4.65;;;;;;;;;;10481089;28;20107;-76
2023/08/20 18:06:59;;;;;;;6.72;5.13;;;;;;;;;;10484032;28;20041;-78
2023/08/20 18:12:04;;;;;;;8.63;4.97;;;;;;;;;;10476685;28;20055;-77
2023/08/20 18:17:07;;;;;;;8.23;4.90;;;;;;;;;;10474634;28;20064;-78
2023/08/20 18:22:10;;;;;;;6.55;4.57;;;;;;;;;;10473293;28;20501;-79
2023/08/20 18:27:14;;;;;;;7.03;4.60;;;;;;;;;;10474379;28;20059;-77
2023/08/20 18:32:17;;;;;;;7.97;5.45;;;;;;;;;;10480920;28;20074;-77
2023/08/20 18:37:19;;;;;;;8.38;5.10;;;;;;;;;;10480527;28;20136;-77
2023/08/20 18:42:24;;;;;;;9.43;4.88;;;;;;;;;;10481872;28;20143;-77
2023/08/20 18:47:27;;;;;;;7.63;4.70;;;;;;;;;;10479213;28;20126;-80
2023/08/20 18:52:30;;;;;;;9.70;5.00;;;;;;;;;;10485028;28;20033;-80
2023/08/20 18:57:34;;;;;;;7.93;4.90;;;;;;;;;;10501057;28;20048;-80
2023/08/20 19:02:36;;;;;;;7.18;4.68;;;;;;;;;;10485717;28;20041;-81
2023/08/20 19:07:42;;;;;;;10.00;5.40;;;;;;;;;;10483343;28;20317;-79
2023/08/20 19:12:47;;;;;;;10.85;5.15;;;;;;;;;;10481906;28;20474;-80
2023/08/20 19:17:50;;;;;;;10.02;5.55;;;;;;;;;;10481545;28;20414;-78
2023/08/20 19:22:53;;;;;;;7.80;5.05;;;;;;;;;;10472838;28;20033;-79
2023/08/20 19:28:19;;;;;;;8.70;5.57;;;;;;;;;;10473948;28;20040;-79
2023/08/20 19:33:33;;;;;;;11.02;6.57;;;;;;;;;;10474152;28;20048;-79
2023/08/20 19:38:42;;;;;;;9.18;5.25;;;;;;;;;;10476065;28;20033;-78
2023/08/20 19:43:52;;;;;;;9.85;5.55;;;;;;;;;;10476466;28;20540;-81
2023/08/20 19:49:13;;;;;;;9.02;5.60;;;;;;;;;;10479784;28;20287;-80
2023/08/20 19:54:21;;;;;;;9.68;6.05;;;;;;;;;;10490132;28;20102;-79
2023/08/20 19:59:32;;;;;;;9.10;5.88;;;;;;;;;;10490930;28;20063;-80
2023/08/20 20:04:51;;;;;;;9.48;5.68;;;;;;;;;;10468601;28;20044;-80
2023/08/20 20:09:56;;;;;;;9.15;5.53;;;;;;;;;;10483121;28;20052;-80
2023/08/20 20:15:15;;;;;;;16.92;6.15;;;;;;;;;;10483370;28;20400;-79
2023/08/20 20:20:23;;;;;;;10.68;6.13;;;;;;;;;;10487372;28;20299;-80
2023/08/20 20:36:34;;;;;;;10.43;6.13;;;;;;;;;;10493411;28;20087;-80
2023/08/20 20:41:56;;;;;;;9.27;5.53;;;;;;;;;;10503232;28;20063;-79
2023/08/20 20:47:09;;;;;;;8.90;6.00;;;;;;;;;;10499122;28;20056;-79
2023/08/20 20:52:48;;;;;;;12.65;7.05;;;;;;;;;;10498840;28;20057;-80
2023/08/20 20:58:15;;;;;;;13.82;5.90;;;;;;;;;;10488231;28;20366;-79
2023/08/20 21:03:49;;;;;;;18.65;10.00;;;;;;;;;;10493117;28;20040;-79
2023/08/20 21:09:01;;;;;;;8.70;5.88;;;;;;;;;;10486106;28;20489;-78
2023/08/20 21:14:17;;;;;;;10.77;5.50;;;;;;;;;;10485868;28;20052;-79
2023/08/20 21:19:35;;;;;;;10.52;6.03;;;;;;;;;;10485028;28;20102;-79
2023/08/20 21:24:43;;;;;;;11.27;5.72;;;;;;;;;;10485441;28;20044;-78
2023/08/20 21:29:54;;;;;;;8.75;6.00;;;;;;;;;;10489942;28;20043;-78
2023/08/20 21:35:11;;;;;;;12.43;6.30;;;;;;;;;;10489394;28;20048;-80
2023/08/20 21:40:18;;;;;;;10.70;6.53;;;;;;;;;;10486635;28;20064;-78
2023/08/20 21:45:41;;;;;;;11.30;6.30;;;;;;;;;;10494604;28;20032;-80
2023/08/20 21:50:59;;;;;;;13.43;6.70;;;;;;;;;;10495582;28;20040;-78
2023/08/20 21:56:10;;;;;;;14.32;6.55;;;;;;;;;;10490226;28;20043;-79
2023/08/20 22:01:40;;;;;;;10.77;6.57;;;;;;;;;;10490147;28;20075;-80
2023/08/20 22:06:59;;;;;;;11.20;6.13;;;;;;;;;;10493352;28;20067;-78
2023/08/20 22:12:12;;;;;;;12.40;6.90;;;;;;;;;;10494199;28;20056;-79
2023/08/20 22:22:53;;;;;;;11.35;7.13;;;;;;;;;;10492422;28;20297;-79
2023/08/20 22:28:06;;;;;;;11.95;7.00;;;;;;;;;;10503829;28;20120;-80
2023/08/20 22:33:20;;;;;;;13.10;7.00;;;;;;;;;;10494079;28;20119;-79
2023/08/20 22:38:31;;;;;;;15.15;7.10;;;;;;;;;;10469452;28;20071;-79
2023/08/20 22:43:41;;;;;;;12.93;6.88;;;;;;;;;;10495496;28;20466;-76
2023/08/20 22:48:45;;;;;;;11.60;6.95;;;;;;;;;;10488955;28;20494;-76
2023/08/20 22:53:58;;;;;;;11.50;6.50;;;;;;;;;;10478512;28;20049;-75
2023/08/20 22:59:05;;;;;;;12.30;6.72;;;;;;;;;;10476871;28;20504;-76
2023/08/20 23:04:14;;;;;;;12.13;6.85;;;;;;;;;;10475358;28;20040;-76
2023/08/20 23:09:22;;;;;;;11.65;6.72;;;;;;;;;;10471716;28;20417;-76
2023/08/20 23:14:37;;;;;;;10.80;6.65;;;;;;;;;;10460826;28;20044;-76
2023/08/20 23:19:43;;;;;;;12.05;7.07;;;;;;;;;;10469586;28;20501;-75
2023/08/20 23:25:06;;;;;;;11.75;7.47;;;;;;;;;;10500108;28;20565;-76
2023/08/20 23:30:12;;;;;;;12.05;6.70;;;;;;;;;;10512629;28;20043;-76
2023/08/20 23:35:16;;;;;;;17.08;8.63;;;;;;;;;;10531127;28;20465;-75
2023/08/20 23:40:26;;;;;;;13.82;7.68;;;;;;;;;;10528945;28;20463;-76
2023/08/20 23:45:37;;;;;;;14.48;7.32;;;;;;;;;;10527042;28;20048;-76
2023/08/20 23:50:46;;;;;;;14.63;8.10;;;;;;;;;;10507850;28;20409;-76
2023/08/20 23:55:58;;;;;;;13.50;7.20;;;;;;;;;;10525161;28;20044;-76
